createdAt,value
2023-02-23T00:01:54.237Z,33.97
2023-02-23T00:03:57.672Z,34.07
2023-02-23T00:06:02.506Z,35.80
2023-02-23T00:08:04.493Z,35.60
2023-02-23T00:10:07.275Z,34.03
2023-02-23T00:12:09.279Z,39.53
2023-02-23T00:14:12.399Z,34.30
2023-02-23T00:16:18.507Z,35.43
2023-02-23T00:18:20.094Z,36.40
2023-02-23T00:20:22.460Z,35.67
2023-02-23T00:22:25.323Z,35.63
2023-02-23T00:24:27.093Z,35.30
2023-02-23T00:26:30.605Z,36.43
2023-02-23T00:28:32.296Z,32.87
2023-02-23T00:30:35.279Z,35.90
2023-02-23T00:32:36.930Z,35.00
2023-02-23T00:34:38.853Z,36.10
2023-02-23T00:36:40.973Z,36.77
2023-02-23T00:38:42.592Z,33.60
2023-02-23T00:40:44.179Z,38.20
2023-02-23T00:42:47.877Z,38.07
2023-02-23T00:44:49.576Z,33.97
2023-02-23T00:46:53.076Z,33.97
2023-02-23T00:48:56.593Z,36.43
2023-02-23T00:50:59.697Z,34.13
2023-02-23T00:53:01.293Z,36.50
2023-02-23T00:55:02.935Z,38.80
2023-02-23T00:57:04.516Z,40.63
2023-02-23T00:59:06.732Z,35.90
2023-02-23T01:01:09.502Z,35.77
2023-02-23T01:03:12.411Z,40.20
2023-02-23T01:05:14.640Z,34.07
2023-02-23T01:07:16.284Z,35.07
2023-02-23T01:09:17.920Z,34.57
2023-02-23T01:11:21.196Z,41.03
2023-02-23T01:13:26.038Z,33.47
2023-02-23T01:15:27.763Z,33.13
2023-02-23T01:17:29.433Z,37.67
2023-02-23T01:19:35.574Z,35.10
2023-02-23T01:21:40.109Z,36.88
2023-02-23T01:23:41.763Z,38.10
2023-02-23T01:25:45.157Z,36.90
2023-02-23T01:27:46.845Z,37.30
2023-02-23T01:29:48.557Z,36.07
2023-02-23T01:34:02.131Z,35.10
2023-02-23T01:36:05.678Z,36.00
2023-02-23T01:38:07.339Z,35.90
2023-02-23T01:40:13.777Z,32.30
2023-02-23T01:42:15.412Z,34.23
2023-02-23T01:44:54.031Z,36.10
2023-02-23T01:46:55.567Z,31.92
2023-02-23T01:48:57.725Z,34.87
2023-02-23T01:51:02.368Z,34.43
2023-02-23T01:53:06.011Z,35.87
2023-02-23T01:55:10.599Z,34.50
2023-02-23T01:57:14.609Z,37.83
2023-02-23T01:59:17.698Z,36.50
2023-02-23T02:01:19.745Z,37.50
2023-02-23T02:05:29.623Z,39.50
2023-02-23T02:07:32.994Z,36.78
2023-02-23T02:09:36.161Z,39.23
2023-02-23T02:11:39.819Z,35.30
2023-02-23T02:13:41.414Z,37.30
2023-02-23T02:15:59.229Z,36.72
2023-02-23T02:18:11.168Z,32.43
2023-02-23T02:20:37.690Z,37.53
2023-02-23T02:23:15.385Z,36.47
2023-02-23T02:25:35.603Z,33.43
2023-02-23T02:28:12.735Z,34.87
2023-02-23T02:30:55.198Z,42.13
2023-02-23T02:33:29.613Z,35.03
2023-02-23T02:35:49.225Z,34.83
2023-02-23T02:38:10.362Z,34.50
2023-02-23T02:40:21.925Z,35.40
2023-02-23T02:42:34.277Z,34.73
2023-02-23T02:44:43.384Z,34.93
2023-02-23T02:46:48.881Z,35.30
2023-02-23T02:48:58.156Z,34.27
2023-02-23T02:51:07.353Z,36.40
2023-02-23T02:53:11.482Z,35.97
2023-02-23T02:55:17.260Z,36.37
2023-02-23T02:57:22.491Z,36.80
2023-02-23T02:59:24.397Z,39.20
2023-02-23T03:01:26.218Z,33.97
2023-02-23T03:03:29.997Z,37.20
2023-02-23T03:05:43.214Z,36.77
2023-02-23T03:07:53.713Z,38.55
2023-02-23T03:10:03.279Z,36.40
2023-02-23T03:12:11.876Z,37.53
2023-02-23T03:14:25.338Z,34.47
2023-02-23T03:16:36.231Z,37.77
2023-02-23T03:18:57.970Z,40.40
2023-02-23T03:21:08.290Z,39.23
2023-02-23T03:23:19.048Z,38.17
2023-02-23T03:25:29.503Z,35.27
2023-02-23T03:27:44.337Z,35.23
2023-02-23T03:29:54.728Z,35.20
2023-02-23T03:32:09.695Z,39.50
2023-02-23T03:34:17.015Z,39.67
2023-02-23T03:36:23.148Z,32.40
2023-02-23T03:38:29.832Z,34.65
2023-02-23T03:40:37.261Z,33.70
2023-02-23T03:42:50.600Z,37.92
2023-02-23T03:44:56.678Z,38.03
2023-02-23T03:47:00.855Z,37.03
2023-02-23T03:49:07.227Z,33.43
2023-02-23T03:51:13.528Z,41.73
2023-02-23T03:53:20.028Z,37.07
2023-02-23T03:55:25.631Z,34.17
2023-02-23T03:57:31.303Z,35.60
2023-02-23T03:59:39.142Z,44.97
2023-02-23T04:01:41.344Z,36.27
2023-02-23T04:03:46.248Z,33.57
2023-02-23T04:05:50.981Z,37.33
2023-02-23T04:07:54.190Z,40.10
2023-02-23T04:09:55.822Z,37.50
2023-02-23T04:12:06.138Z,35.40
2023-02-23T04:14:18.532Z,41.50
2023-02-23T04:16:20.236Z,32.67
2023-02-23T04:18:24.620Z,37.70
2023-02-23T04:20:27.290Z,35.33
2023-02-23T04:22:28.850Z,36.47
2023-02-23T04:24:30.440Z,43.17
2023-02-23T04:26:32.013Z,37.80
2023-02-23T04:28:33.856Z,35.83
2023-02-23T04:30:36.737Z,35.93
2023-02-23T04:32:38.634Z,37.20
2023-02-23T04:34:40.259Z,39.17
2023-02-23T04:36:41.804Z,39.00
2023-02-23T04:38:43.500Z,37.42
2023-02-23T04:40:45.166Z,42.97
2023-02-23T04:42:46.676Z,32.83
2023-02-23T04:44:48.218Z,37.07
2023-02-23T04:46:51.187Z,38.33
2023-02-23T04:48:52.736Z,34.33
2023-02-23T04:50:54.769Z,37.10
2023-02-23T04:52:56.510Z,37.45
2023-02-23T04:54:58.335Z,41.40
2023-02-23T04:56:59.918Z,34.87
2023-02-23T04:59:01.920Z,41.17
2023-02-23T05:01:08.190Z,41.70
2023-02-23T05:03:11.321Z,34.83
2023-02-23T05:05:12.956Z,36.97
2023-02-23T05:07:14.506Z,34.13
2023-02-23T05:09:16.453Z,40.27
2023-02-23T05:11:18.573Z,37.47
2023-02-23T05:13:20.239Z,37.47
2023-02-23T05:15:21.829Z,38.07
2023-02-23T05:17:23.735Z,42.60
2023-02-23T05:19:26.925Z,36.73
2023-02-23T05:21:28.531Z,35.80
2023-02-23T05:23:30.140Z,36.70
2023-02-23T05:25:31.660Z,40.78
2023-02-23T05:27:33.299Z,39.20
2023-02-23T05:29:35.156Z,34.33
2023-02-23T05:31:36.807Z,40.20
2023-02-23T05:33:39.477Z,34.60
2023-02-23T05:35:42.499Z,41.77
2023-02-23T05:37:44.048Z,40.40
2023-02-23T05:39:46.220Z,38.83
2023-02-23T05:41:47.920Z,36.27
2023-02-23T05:43:50.808Z,39.03
2023-02-23T05:45:52.475Z,38.97
2023-02-23T05:47:54.075Z,40.17
2023-02-23T05:49:55.640Z,39.88
2023-02-23T05:51:58.522Z,40.40
2023-02-23T05:54:00.487Z,39.00
2023-02-23T05:56:02.829Z,40.13
2023-02-23T05:58:04.405Z,41.73
2023-02-23T06:00:08.022Z,40.03
2023-02-23T06:02:09.554Z,44.10
2023-02-23T06:04:11.146Z,42.23
2023-02-23T06:06:13.071Z,35.03
2023-02-23T06:08:15.948Z,35.43
2023-02-23T06:10:18.002Z,36.83
2023-02-23T06:12:19.637Z,35.47
2023-02-23T06:14:21.197Z,34.73
2023-02-23T06:16:22.831Z,36.13
2023-02-23T06:18:25.042Z,36.60
2023-02-23T06:20:26.701Z,37.30
2023-02-23T06:22:28.261Z,35.57
2023-02-23T06:24:31.425Z,36.93
2023-02-23T06:26:32.929Z,39.27
2023-02-23T06:28:34.699Z,35.03
2023-02-23T06:30:37.222Z,39.20
2023-02-23T06:32:38.866Z,39.25
2023-02-23T06:34:40.493Z,36.83
2023-02-23T06:36:42.275Z,38.20
2023-02-23T06:38:43.774Z,36.00
2023-02-23T06:40:54.237Z,37.23
2023-02-23T06:42:55.992Z,38.53
2023-02-23T06:44:57.618Z,37.80
2023-02-23T06:46:59.138Z,36.27
2023-02-23T06:49:00.805Z,34.33
2023-02-23T06:51:02.357Z,38.60
2023-02-23T06:53:04.284Z,36.93
2023-02-23T06:55:07.477Z,43.13
2023-02-23T06:57:10.650Z,35.30
2023-02-23T06:59:12.398Z,34.77
2023-02-23T07:01:14.181Z,33.37
2023-02-23T07:03:26.024Z,38.10
2023-02-23T07:05:27.669Z,32.90
2023-02-23T07:14:26.330Z,33.80
2023-02-23T07:16:28.630Z,34.47
2023-02-23T07:18:30.260Z,38.23
2023-02-23T07:20:32.121Z,34.43
2023-02-23T07:29:14.043Z,32.83
2023-02-23T07:31:17.444Z,35.90
2023-02-23T07:33:19.035Z,34.83
2023-02-23T07:35:20.904Z,38.40
2023-02-23T07:37:22.429Z,37.73
2023-02-23T07:39:24.009Z,35.73
2023-02-23T07:41:25.805Z,32.92
2023-02-23T07:43:27.383Z,40.53
2023-02-23T07:45:29.082Z,36.03
2023-02-23T07:47:32.183Z,34.30
2023-02-23T07:49:34.395Z,38.23
2023-02-23T07:51:36.167Z,37.47
2023-02-23T07:53:37.787Z,33.67
2023-02-23T07:55:39.605Z,38.57
2023-02-23T07:57:41.196Z,35.40
2023-02-23T07:59:42.964Z,39.23
2023-02-23T08:01:44.514Z,35.33
2023-02-23T08:03:47.480Z,37.93
2023-02-23T08:05:49.406Z,39.40
2023-02-23T08:07:50.959Z,38.20
2023-02-23T08:09:52.840Z,33.57
2023-02-23T08:11:54.430Z,38.17
2023-02-23T08:13:56.302Z,32.63
2023-02-23T08:15:58.410Z,36.27
2023-02-23T08:18:00.105Z,42.25
2023-02-23T08:20:03.248Z,33.53
2023-02-23T08:22:05.395Z,33.70
2023-02-23T08:24:07.465Z,34.27
2023-02-23T08:26:09.260Z,36.60
2023-02-23T08:28:10.917Z,38.07
2023-02-23T08:30:14.055Z,34.43
2023-02-23T08:32:15.706Z,34.73
2023-02-23T08:34:18.124Z,37.13
2023-02-23T08:36:21.162Z,36.97
2023-02-23T08:38:22.710Z,39.17
2023-02-23T08:40:24.586Z,35.73
2023-02-23T08:42:26.305Z,38.13
2023-02-23T08:44:27.875Z,38.90
2023-02-23T08:46:29.625Z,38.47
2023-02-23T08:48:31.279Z,37.10
2023-02-23T08:50:32.990Z,38.40
2023-02-23T08:52:36.068Z,34.40
2023-02-23T08:54:37.862Z,34.78
2023-02-23T08:56:39.413Z,34.53
2023-02-23T08:58:41.655Z,29.70
2023-02-23T09:00:44.563Z,35.07
2023-02-23T09:02:46.485Z,32.27
2023-02-23T09:04:48.057Z,28.50
2023-02-23T09:06:50.012Z,28.00
2023-02-23T09:08:53.482Z,31.13
2023-02-23T09:10:55.120Z,29.30
2023-02-23T09:12:57.101Z,26.97
2023-02-23T09:14:58.650Z,37.72
2023-02-23T09:17:00.139Z,31.00
2023-02-23T09:19:01.860Z,25.30
2023-02-23T09:21:04.555Z,28.50
2023-02-23T09:23:06.117Z,26.23
2023-02-23T09:25:09.495Z,24.07
2023-02-23T09:27:11.053Z,27.37
2023-02-23T09:29:12.664Z,26.10
2023-02-23T09:31:16.563Z,24.40
2023-02-23T09:33:18.220Z,26.03
2023-02-23T09:35:22.988Z,27.00
2023-02-23T09:37:24.612Z,25.83
2023-02-23T09:39:37.289Z,23.97
2023-02-23T09:42:00.182Z,22.43
2023-02-23T09:44:10.843Z,24.33
2023-02-23T09:46:25.963Z,22.17
2023-02-23T09:48:28.734Z,23.67
2023-02-23T09:50:33.899Z,23.10
2023-02-23T09:52:40.933Z,23.93
2023-02-23T09:54:42.927Z,23.03
2023-02-23T09:56:48.204Z,21.93
2023-02-23T09:58:51.304Z,24.70
2023-02-23T10:01:14.790Z,24.20
2023-02-23T10:03:27.144Z,21.83
2023-02-23T10:05:32.411Z,24.20
2023-02-23T10:07:45.673Z,24.77
2023-02-23T10:10:17.188Z,22.47
2023-02-23T10:12:29.457Z,21.43
2023-02-23T10:14:55.149Z,26.40
2023-02-23T10:17:11.306Z,22.47
2023-02-23T10:19:21.676Z,17.40
2023-02-23T10:21:31.257Z,19.20
2023-02-23T10:23:38.194Z,24.33
2023-02-23T10:25:49.409Z,18.57
2023-02-23T10:27:51.579Z,20.73
2023-02-23T10:29:59.210Z,27.33
2023-02-23T10:32:05.136Z,28.87
2023-02-23T10:34:13.897Z,28.23
2023-02-23T10:36:18.434Z,31.43
2023-02-23T10:38:20.047Z,26.30
2023-02-23T10:40:25.277Z,27.03
2023-02-23T10:42:28.732Z,27.63
2023-02-23T10:44:31.009Z,27.70
2023-02-23T10:46:39.695Z,28.77
2023-02-23T10:48:42.680Z,29.10
2023-02-23T10:50:45.263Z,26.87
2023-02-23T10:55:06.306Z,29.10
2023-02-23T10:57:08.137Z,30.77
2023-02-23T10:59:19.495Z,31.90
2023-02-23T11:01:34.582Z,34.07
2023-02-23T11:03:42.808Z,35.13
2023-02-23T11:05:46.897Z,34.87
2023-02-23T11:07:48.492Z,35.27
2023-02-23T11:09:50.497Z,36.60
2023-02-23T11:12:02.370Z,33.73
2023-02-23T11:14:16.760Z,33.97
2023-02-23T11:16:20.591Z,32.50
2023-02-23T11:18:25.824Z,29.00
2023-02-23T11:20:33.043Z,30.10
2023-02-23T11:22:37.163Z,28.80
2023-02-23T11:24:41.361Z,26.50
2023-02-23T11:26:45.912Z,26.80
2023-02-23T11:28:47.953Z,24.60
2023-02-23T11:30:49.869Z,26.13
2023-02-23T11:32:53.365Z,24.57
2023-02-23T11:35:21.126Z,32.40
2023-02-23T11:37:24.130Z,25.20
2023-02-23T11:39:25.761Z,27.10
2023-02-23T11:41:27.493Z,24.90
2023-02-23T11:43:29.265Z,28.53
2023-02-23T11:45:34.026Z,27.60
2023-02-23T11:47:40.331Z,26.57
2023-02-23T11:49:45.874Z,26.50
2023-02-23T11:51:49.184Z,27.07
2023-02-23T11:53:52.601Z,25.63
2023-02-23T11:55:58.928Z,24.97
2023-02-23T11:58:25.528Z,25.43
2023-02-23T12:00:27.900Z,20.70
2023-02-23T12:02:31.451Z,20.40
2023-02-23T12:04:36.131Z,26.33
2023-02-23T12:06:40.015Z,22.43
2023-02-23T12:08:46.216Z,22.70
2023-02-23T12:11:04.002Z,22.00
2023-02-23T12:13:18.976Z,21.77
2023-02-23T12:15:35.563Z,22.43
2023-02-23T12:17:44.506Z,20.97
2023-02-23T12:19:51.184Z,21.50
2023-02-23T12:22:02.303Z,21.80
2023-02-23T12:24:15.787Z,20.73
2023-02-23T12:26:21.180Z,20.20
2023-02-23T12:28:32.434Z,22.83
2023-02-23T12:30:42.440Z,21.97
2023-02-23T12:32:48.813Z,21.53
2023-02-23T12:34:57.105Z,19.93
2023-02-23T12:37:03.905Z,22.07
2023-02-23T12:39:16.150Z,23.77
2023-02-23T12:41:26.204Z,21.67
2023-02-23T12:43:36.104Z,20.00
2023-02-23T12:45:45.211Z,16.53
2023-02-23T12:47:53.572Z,20.00
2023-02-23T12:49:59.043Z,20.53
2023-02-23T12:52:09.863Z,21.17
2023-02-23T12:54:13.042Z,20.43
2023-02-23T12:56:34.827Z,18.53
2023-02-23T12:58:43.693Z,16.20
2023-02-23T13:00:53.233Z,17.53
2023-02-23T13:03:12.682Z,19.87
2023-02-23T13:05:23.486Z,17.53
2023-02-23T13:07:34.497Z,18.17
2023-02-23T13:09:47.523Z,15.20
2023-02-23T13:12:14.880Z,15.00
2023-02-23T13:14:30.004Z,11.17
2023-02-23T13:16:35.926Z,9.17
2023-02-23T13:18:43.692Z,11.80
2023-02-23T13:20:50.554Z,11.80
2023-02-23T13:22:58.413Z,13.00
2023-02-23T13:25:21.165Z,12.87
2023-02-23T13:27:30.452Z,12.50
2023-02-23T13:29:36.726Z,11.87
2023-02-23T13:31:40.808Z,13.80
2023-02-23T13:33:44.499Z,10.53
2023-02-23T13:35:46.203Z,12.73
2023-02-23T13:37:52.725Z,10.53
2023-02-23T13:40:02.928Z,10.30
2023-02-23T13:42:17.307Z,9.57
2023-02-23T13:44:27.807Z,9.17
2023-02-23T13:46:40.724Z,13.33
2023-02-23T13:48:56.672Z,10.03
2023-02-23T13:51:05.920Z,12.40
2023-02-23T13:53:27.106Z,14.07
2023-02-23T13:55:49.657Z,12.20
2023-02-23T13:57:52.147Z,13.80
2023-02-23T13:59:55.134Z,9.93
2023-02-23T14:01:59.743Z,13.80
2023-02-23T14:04:03.593Z,10.30
2023-02-23T14:06:05.658Z,9.10
2023-02-23T14:08:07.728Z,12.10
2023-02-23T14:10:17.456Z,14.27
2023-02-23T14:12:24.733Z,15.03
2023-02-23T14:14:44.378Z,13.93
2023-02-23T14:17:09.800Z,16.43
2023-02-23T14:19:32.388Z,11.00
2023-02-23T14:21:44.310Z,15.57
2023-02-23T14:23:51.894Z,13.37
2023-02-23T14:26:11.586Z,12.30
2023-02-23T14:28:25.242Z,10.50
2023-02-23T14:30:28.494Z,11.30
2023-02-23T14:32:37.463Z,9.27
2023-02-23T14:34:44.633Z,15.10
2023-02-23T14:36:46.298Z,9.93
2023-02-23T14:38:51.352Z,11.30
2023-02-23T14:40:54.551Z,13.50
2023-02-23T14:42:58.823Z,12.33
2023-02-23T14:45:05.587Z,11.97
2023-02-23T14:47:11.611Z,11.77
2023-02-23T14:49:20.127Z,10.13
2023-02-23T14:51:25.708Z,10.07
2023-02-23T14:53:27.445Z,11.23
2023-02-23T14:55:30.499Z,12.50
2023-02-23T14:57:36.327Z,8.60
2023-02-23T14:59:40.992Z,10.70
2023-02-23T15:01:42.542Z,11.90
2023-02-23T15:04:11.999Z,8.43
2023-02-23T15:06:15.960Z,11.33
2023-02-23T15:09:01.890Z,10.13
2023-02-23T15:14:21.785Z,8.90
2023-02-23T15:16:36.091Z,12.80
2023-02-23T15:20:20.305Z,10.30
2023-02-23T15:22:00.167Z,7.70
2023-02-23T15:26:58.954Z,9.80
2023-02-23T15:29:05.855Z,8.57
2023-02-23T15:31:10.734Z,11.60
2023-02-23T15:33:15.041Z,9.53
2023-02-23T15:35:16.805Z,10.50
2023-02-23T15:37:27.496Z,9.77
2023-02-23T15:39:35.067Z,9.70
2023-02-23T15:41:37.920Z,7.97
2023-02-23T15:43:39.571Z,11.67
2023-02-23T15:45:46.290Z,9.60
2023-02-23T15:47:48.501Z,9.80
2023-02-23T15:49:50.156Z,9.33
2023-02-23T15:51:57.210Z,14.07
2023-02-23T15:54:02.520Z,13.17
2023-02-23T15:56:12.217Z,8.10
2023-02-23T15:58:20.890Z,11.27
2023-02-23T16:00:30.125Z,9.00
2023-02-23T16:02:31.926Z,10.13
2023-02-23T16:04:38.218Z,11.23
2023-02-23T16:06:48.606Z,8.10
2023-02-23T16:08:56.680Z,12.40
2023-02-23T16:11:09.702Z,12.37
2023-02-23T16:13:15.156Z,10.20
2023-02-23T16:15:23.610Z,10.70
2023-02-23T16:17:28.465Z,8.10
2023-02-23T16:19:30.626Z,9.20
2023-02-23T16:21:32.812Z,8.70
2023-02-23T16:23:37.127Z,10.87
2023-02-23T16:25:43.640Z,8.60
2023-02-23T16:27:57.012Z,9.20
2023-02-23T16:30:04.560Z,13.03
2023-02-23T16:32:11.439Z,9.50
2023-02-23T16:34:23.900Z,9.70
2023-02-23T16:36:34.798Z,10.07
2023-02-23T16:38:38.629Z,8.40
2023-02-23T16:40:40.550Z,9.90
2023-02-23T16:42:42.123Z,9.60
2023-02-23T16:44:45.124Z,10.33
2023-02-23T16:47:10.179Z,8.93
2023-02-23T16:49:12.368Z,9.13
2023-02-23T16:51:16.782Z,14.00
2023-02-23T16:53:18.369Z,11.43
2023-02-23T16:55:21.056Z,8.30
2023-02-23T16:57:27.423Z,14.73
2023-02-23T16:59:35.089Z,9.27
2023-02-23T17:01:37.988Z,9.07
2023-02-23T17:03:47.379Z,9.90
2023-02-23T17:05:54.125Z,9.03
2023-02-23T17:07:55.779Z,14.43
2023-02-23T17:09:57.360Z,13.27
2023-02-23T17:11:59.037Z,10.23
2023-02-23T17:14:00.548Z,9.87
2023-02-23T17:16:04.356Z,8.63
2023-02-23T17:18:07.870Z,13.47
2023-02-23T17:20:10.873Z,13.03
2023-02-23T17:22:13.082Z,24.13
2023-02-23T17:24:14.664Z,17.67
2023-02-23T17:26:17.944Z,12.30
2023-02-23T17:28:19.592Z,13.67
2023-02-23T17:30:21.935Z,9.30
2023-02-23T17:32:23.648Z,13.13
2023-02-23T17:34:26.894Z,10.90
2023-02-23T17:36:28.490Z,13.50
2023-02-23T17:38:30.045Z,9.10
2023-02-23T17:40:31.607Z,9.27
2023-02-23T17:42:33.229Z,8.23
2023-02-23T17:44:34.949Z,10.33
2023-02-23T17:46:37.102Z,9.90
2023-02-23T17:48:38.683Z,9.80
2023-02-23T17:50:41.538Z,10.60
2023-02-23T17:52:43.262Z,9.57
2023-02-23T17:54:45.132Z,17.77
2023-02-23T17:56:55.135Z,9.90
2023-02-23T17:58:56.913Z,9.03
2023-02-23T18:01:00.774Z,11.73
2023-02-23T18:03:02.567Z,12.47
2023-02-23T18:05:04.689Z,18.10
2023-02-23T18:07:07.737Z,16.40
2023-02-23T18:09:09.421Z,15.27
2023-02-23T18:11:11.413Z,11.63
2023-02-23T18:13:12.996Z,10.33
2023-02-23T18:15:14.537Z,10.07
2023-02-23T18:17:16.588Z,13.67
2023-02-23T18:19:18.279Z,11.27
2023-02-23T18:21:22.093Z,9.70
2023-02-23T18:23:26.707Z,11.10
2023-02-23T18:25:29.731Z,12.40
2023-02-23T18:27:31.232Z,11.37
2023-02-23T18:29:34.837Z,12.60
2023-02-23T18:31:36.553Z,14.17
2023-02-23T18:33:38.184Z,12.70
2023-02-23T18:35:42.152Z,11.43
2023-02-23T18:37:43.754Z,13.47
2023-02-23T18:39:50.766Z,12.30
2023-02-23T18:41:52.370Z,11.67
2023-02-23T18:43:53.935Z,12.53
2023-02-23T18:45:55.697Z,14.07
2023-02-23T18:47:57.315Z,16.90
2023-02-23T18:49:58.858Z,13.17
2023-02-23T18:52:00.436Z,15.73
2023-02-23T18:54:02.353Z,14.40
2023-02-23T18:56:06.983Z,14.93
2023-02-23T18:58:08.549Z,16.70
2023-02-23T19:00:11.938Z,17.17
2023-02-23T19:02:13.469Z,15.40
2023-02-23T19:04:15.018Z,12.10
2023-02-23T19:08:32.933Z,12.00
2023-02-23T19:10:39.617Z,13.10
2023-02-23T19:12:43.695Z,14.30
2023-02-23T19:14:49.747Z,13.07
2023-02-23T19:16:51.621Z,12.93
2023-02-23T19:18:53.454Z,17.23
2023-02-23T19:20:54.992Z,13.07
2023-02-23T19:22:56.615Z,13.17
2023-02-23T19:25:00.331Z,14.17
2023-02-23T19:27:01.907Z,13.27
2023-02-23T19:29:05.256Z,12.37
2023-02-23T19:31:08.955Z,13.87
2023-02-23T19:33:10.824Z,13.17
2023-02-23T19:35:13.755Z,15.63
2023-02-23T19:37:15.394Z,16.23
2023-02-23T19:39:16.970Z,13.47
2023-02-23T19:41:20.939Z,12.87
2023-02-23T19:43:22.966Z,13.37
2023-02-23T19:45:25.937Z,14.13
2023-02-23T19:47:27.602Z,14.13
2023-02-23T19:49:29.304Z,14.00
2023-02-23T19:51:30.861Z,15.50
2023-02-23T19:53:32.725Z,14.37
2023-02-23T19:55:34.347Z,17.50
2023-02-23T19:57:35.916Z,16.83
2023-02-23T19:59:37.746Z,17.33
2023-02-23T20:01:40.781Z,17.03
2023-02-23T20:03:43.919Z,15.77
2023-02-23T20:05:45.542Z,14.83
2023-02-23T20:07:47.104Z,16.13
2023-02-23T20:09:58.819Z,17.53
2023-02-23T20:12:00.333Z,21.70
2023-02-23T20:14:04.368Z,16.73
2023-02-23T20:16:08.256Z,17.40
2023-02-23T20:18:11.607Z,17.00
2023-02-23T20:20:13.861Z,16.40
2023-02-23T20:22:15.447Z,18.40
2023-02-23T20:24:17.920Z,17.60
2023-02-23T20:26:22.721Z,16.70
2023-02-23T20:28:24.279Z,18.73
2023-02-23T20:30:25.898Z,18.23
2023-02-23T20:32:27.703Z,17.43
2023-02-23T20:34:30.836Z,17.80
2023-02-23T20:36:32.472Z,18.40
2023-02-23T20:38:34.124Z,20.60
2023-02-23T20:40:35.902Z,17.87
2023-02-23T20:42:37.431Z,21.43
2023-02-23T20:44:39.042Z,19.37
2023-02-23T20:46:41.521Z,19.53
2023-02-23T20:48:43.516Z,20.17
2023-02-23T20:50:46.617Z,20.30
2023-02-23T20:52:48.780Z,19.23
2023-02-23T20:54:50.309Z,21.07
2023-02-23T20:56:51.976Z,17.77
2023-02-23T20:59:03.564Z,20.93
2023-02-23T21:01:11.706Z,20.93
2023-02-23T21:03:13.283Z,20.13
2023-02-23T21:05:18.066Z,20.60
2023-02-23T21:07:20.982Z,19.00
2023-02-23T21:09:22.560Z,22.47
2023-02-23T21:11:24.636Z,20.20
2023-02-23T21:13:26.195Z,20.47
2023-02-23T21:15:28.836Z,17.43
2023-02-23T21:17:30.476Z,20.30
2023-02-23T21:19:32.008Z,25.47
2023-02-23T21:21:38.740Z,22.73
2023-02-23T21:23:42.564Z,21.63
2023-02-23T21:25:44.139Z,20.20
2023-02-23T21:27:46.666Z,21.63
2023-02-23T21:29:48.241Z,22.10
2023-02-23T21:31:50.014Z,19.50
2023-02-23T21:33:51.778Z,22.17
2023-02-23T21:35:53.338Z,22.10
2023-02-23T21:37:54.893Z,23.23
2023-02-23T21:39:57.853Z,23.33
2023-02-23T21:42:00.649Z,24.13
2023-02-23T21:44:05.450Z,21.87
2023-02-23T21:46:08.176Z,24.00
2023-02-23T21:48:09.818Z,24.57
2023-02-23T21:50:14.846Z,24.33
2023-02-23T21:52:16.965Z,24.47
2023-02-23T21:54:18.543Z,24.87
2023-02-23T21:56:22.685Z,25.20
2023-02-23T21:58:24.893Z,21.63
2023-02-23T22:00:26.411Z,27.33
2023-02-23T22:02:28.111Z,26.00
2023-02-23T22:04:29.694Z,24.87
2023-02-23T22:06:35.466Z,24.60
2023-02-23T22:08:37.109Z,23.43
2023-02-23T22:10:38.797Z,22.93
2023-02-23T22:12:41.718Z,23.87
2023-02-23T22:14:43.320Z,25.60
2023-02-23T22:16:45.618Z,24.80
2023-02-23T22:18:47.661Z,23.20
2023-02-23T22:20:56.159Z,24.20
2023-02-23T22:22:57.767Z,24.83
2023-02-23T22:24:59.312Z,23.70
2023-02-23T22:27:00.827Z,25.90
2023-02-23T22:29:03.994Z,24.77
2023-02-23T22:31:08.464Z,23.40
2023-02-23T22:33:10.310Z,23.40
2023-02-23T22:35:12.148Z,26.07
2023-02-23T22:37:16.658Z,27.10
2023-02-23T22:39:18.373Z,22.67
2023-02-23T22:41:24.192Z,25.13
2023-02-23T22:43:26.151Z,23.30
2023-02-23T22:45:29.018Z,25.53
2023-02-23T22:47:30.560Z,25.63
2023-02-23T22:49:32.290Z,22.00
2023-02-23T22:51:36.172Z,23.52
2023-02-23T22:53:37.948Z,23.53
2023-02-23T22:55:39.527Z,22.17
2023-02-23T22:57:41.150Z,22.00
2023-02-23T22:59:42.793Z,22.23
2023-02-23T23:01:46.097Z,24.10
2023-02-23T23:03:47.657Z,25.37
2023-02-23T23:05:49.198Z,23.13
2023-02-23T23:07:50.785Z,22.97
2023-02-23T23:09:52.339Z,23.53
2023-02-23T23:11:53.906Z,23.90
2023-02-23T23:13:57.004Z,25.93
2023-02-23T23:16:07.706Z,25.47
2023-02-23T23:18:12.109Z,25.70
2023-02-23T23:20:14.106Z,24.33
2023-02-23T23:22:15.712Z,26.50
2023-02-23T23:24:17.293Z,41.47
2023-02-23T23:26:20.959Z,40.00
2023-02-23T23:28:22.528Z,53.77
2023-02-23T23:30:24.574Z,60.70
2023-02-23T23:32:26.976Z,63.93
2023-02-23T23:34:29.901Z,82.97
2023-02-23T23:36:35.390Z,65.40
2023-02-23T23:38:36.941Z,59.80
2023-02-23T23:40:38.474Z,29.27
2023-02-23T23:42:41.339Z,25.20
2023-02-23T23:44:43.026Z,22.77
2023-02-23T23:46:46.096Z,24.27
2023-02-23T23:48:49.358Z,24.70
2023-02-23T23:50:52.257Z,28.77
2023-02-23T23:52:54.049Z,27.97
2023-02-23T23:54:55.707Z,32.70
2023-02-23T23:56:57.739Z,26.00
2023-02-23T23:58:59.303Z,25.55
